createdAt,value
2022-09-22T00:00:27.347Z,9.24
2022-09-22T00:03:15.418Z,9.13
2022-09-22T00:06:06.363Z,8.96
2022-09-22T00:08:56.168Z,9.15
2022-09-22T00:11:47.352Z,9.11
2022-09-22T00:14:35.253Z,9.04
2022-09-22T00:17:23.262Z,9.08
2022-09-22T00:20:12.427Z,9.14
2022-09-22T00:23:00.329Z,9.12
2022-09-22T00:25:48.253Z,9.08
2022-09-22T00:28:38.135Z,9.07
2022-09-22T00:31:26.956Z,9.15
2022-09-22T00:34:17.376Z,8.98
2022-09-22T00:37:05.375Z,8.49
2022-09-22T00:39:53.889Z,9.12
2022-09-22T00:42:43.270Z,9.10
2022-09-22T00:45:32.552Z,9.09
2022-09-22T00:48:23.788Z,9.12
2022-09-22T00:51:14.677Z,9.11
2022-09-22T00:54:07.012Z,9.10
2022-09-22T00:57:03.279Z,9.00
2022-09-22T00:59:54.362Z,9.06
2022-09-22T01:02:46.309Z,9.06
2022-09-22T01:05:35.036Z,9.10
2022-09-22T01:08:25.491Z,9.04
2022-09-22T01:11:15.833Z,8.96
2022-09-22T01:14:12.889Z,8.94
2022-09-22T01:17:09.034Z,8.96
2022-09-22T01:20:28.522Z,8.97
2022-09-22T01:23:53.681Z,8.89
2022-09-22T01:27:09.174Z,8.91
2022-09-22T01:30:31.065Z,8.87
2022-09-22T01:33:34.312Z,8.77
2022-09-22T01:36:28.136Z,8.75
2022-09-22T01:39:21.536Z,8.74
2022-09-22T01:42:14.301Z,8.65
2022-09-22T01:45:07.644Z,8.62
2022-09-22T01:48:00.009Z,8.64
2022-09-22T01:50:54.475Z,8.62
2022-09-22T01:53:48.629Z,8.64
2022-09-22T01:56:38.187Z,8.64
2022-09-22T01:59:31.660Z,8.66
2022-09-22T02:02:26.692Z,8.71
2022-09-22T02:05:20.927Z,8.71
2022-09-22T02:08:12.756Z,8.77
2022-09-22T02:11:09.703Z,8.80
2022-09-22T02:13:57.646Z,8.79
2022-09-22T02:16:45.782Z,8.81
2022-09-22T02:19:37.887Z,8.75
2022-09-22T02:22:27.106Z,8.64
2022-09-22T02:25:15.224Z,8.66
2022-09-22T02:28:03.558Z,8.62
2022-09-22T02:31:17.951Z,8.52
2022-09-22T02:34:03.988Z,8.45
2022-09-22T02:36:57.656Z,8.33
2022-09-22T02:39:57.487Z,8.18
2022-09-22T02:42:50.550Z,8.02
2022-09-22T02:45:47.641Z,7.86
2022-09-22T02:48:39.660Z,7.80
2022-09-22T02:51:29.914Z,7.63
2022-09-22T02:54:17.842Z,7.51
2022-09-22T02:57:07.314Z,7.43
2022-09-22T02:59:55.228Z,7.35
2022-09-22T03:02:43.157Z,7.27
2022-09-22T03:05:31.145Z,7.21
2022-09-22T03:08:19.061Z,7.09
2022-09-22T03:11:06.999Z,7.06
2022-09-22T03:13:56.265Z,6.99
2022-09-22T03:16:44.159Z,6.94
2022-09-22T03:19:32.109Z,6.90
2022-09-22T03:22:20.026Z,6.86
2022-09-22T03:25:10.284Z,6.80
2022-09-22T03:27:58.285Z,6.79
2022-09-22T03:30:47.914Z,6.83
2022-09-22T03:33:35.787Z,6.82
2022-09-22T03:36:23.752Z,6.82
2022-09-22T03:39:11.668Z,6.82
2022-09-22T03:41:59.882Z,6.78
2022-09-22T03:44:47.971Z,6.83
2022-09-22T03:47:37.202Z,6.87
2022-09-22T03:50:25.127Z,6.79
2022-09-22T03:53:13.057Z,6.79
2022-09-22T03:56:08.391Z,6.54
2022-09-22T03:58:56.299Z,6.63
2022-09-22T04:01:44.441Z,6.58
2022-09-22T04:04:33.732Z,6.54
2022-09-22T04:07:21.642Z,6.48
2022-09-22T04:10:09.629Z,6.42
2022-09-22T04:12:57.568Z,6.38
2022-09-22T04:15:46.478Z,6.34
2022-09-22T04:18:34.729Z,6.39
2022-09-22T04:21:24.302Z,6.29
2022-09-22T04:24:12.211Z,6.22
2022-09-22T04:27:20.116Z,6.21
2022-09-22T04:30:09.996Z,6.17
2022-09-22T04:32:58.646Z,6.21
2022-09-22T04:35:49.476Z,6.14
2022-09-22T04:38:38.871Z,6.19
2022-09-22T04:41:26.887Z,6.17
2022-09-22T04:44:14.837Z,6.12
2022-09-22T04:47:03.084Z,6.07
2022-09-22T04:49:50.976Z,6.12
2022-09-22T04:52:38.955Z,6.13
2022-09-22T04:55:28.910Z,6.12
2022-09-22T04:58:16.912Z,6.08
2022-09-22T05:01:06.053Z,6.04
2022-09-22T05:03:54.067Z,6.00
2022-09-22T05:06:42.094Z,6.03
2022-09-22T05:09:29.984Z,6.08
2022-09-22T05:12:20.396Z,6.01
2022-09-22T05:15:10.324Z,6.05
2022-09-22T05:17:58.257Z,6.08
2022-09-22T05:20:46.145Z,6.05
2022-09-22T05:23:34.142Z,6.03
2022-09-22T05:26:22.059Z,6.07
2022-09-22T05:29:11.454Z,6.07
2022-09-22T05:31:59.792Z,6.06
2022-09-22T05:34:47.678Z,6.02
2022-09-22T05:37:35.595Z,5.95
2022-09-22T05:40:26.074Z,5.93
2022-09-22T05:43:14.877Z,5.87
2022-09-22T05:46:04.242Z,5.84
2022-09-22T05:48:52.212Z,5.89
2022-09-22T05:51:40.403Z,5.93
2022-09-22T05:54:28.380Z,5.97
2022-09-22T05:57:16.428Z,6.09
2022-09-22T06:00:06.997Z,6.15
2022-09-22T06:03:01.996Z,6.22
2022-09-22T06:05:30.090Z,6.30
2022-09-22T06:08:02.757Z,6.41
2022-09-22T06:10:31.392Z,6.53
2022-09-22T06:12:59.563Z,6.63
2022-09-22T06:15:28.506Z,6.74
2022-09-22T06:17:56.160Z,6.92
2022-09-22T06:20:25.346Z,7.00
2022-09-22T06:22:53.917Z,7.12
2022-09-22T06:25:21.809Z,7.26
2022-09-22T06:27:49.464Z,7.28
2022-09-22T06:30:17.098Z,7.48
2022-09-22T06:32:45.929Z,7.53
2022-09-22T06:35:13.533Z,7.65
2022-09-22T06:37:42.866Z,7.76
2022-09-22T06:40:15.254Z,7.82
2022-09-22T06:42:44.856Z,7.90
2022-09-22T06:45:12.629Z,8.02
2022-09-22T06:47:40.231Z,8.10
2022-09-22T06:50:09.477Z,8.14
2022-09-22T06:52:38.509Z,8.18
2022-09-22T06:55:10.605Z,8.32
2022-09-22T06:57:38.202Z,8.44
2022-09-22T07:00:06.953Z,8.53
2022-09-22T07:02:35.933Z,8.60
2022-09-22T07:05:03.572Z,8.66
2022-09-22T07:07:32.151Z,8.70
2022-09-22T07:09:59.861Z,8.80
2022-09-22T07:12:28.875Z,8.83
2022-09-22T07:14:56.459Z,8.94
2022-09-22T07:17:24.461Z,8.92
2022-09-22T07:19:52.073Z,9.09
2022-09-22T07:22:19.740Z,9.24
2022-09-22T07:24:47.366Z,9.33
2022-09-22T07:27:20.408Z,9.40
2022-09-22T07:29:49.400Z,9.52
2022-09-22T07:32:17.543Z,9.60
2022-09-22T07:34:45.173Z,9.74
2022-09-22T07:37:15.443Z,9.91
2022-09-22T07:39:45.172Z,10.01
2022-09-22T07:42:13.021Z,10.12
2022-09-22T07:44:57.753Z,10.28
2022-09-22T07:47:44.361Z,10.48
2022-09-22T07:50:12.179Z,10.68
2022-09-22T07:52:39.846Z,10.65
2022-09-22T07:55:08.120Z,10.80
2022-09-22T07:57:38.229Z,10.88
2022-09-22T08:00:06.782Z,11.01
2022-09-22T08:02:41.088Z,11.07
2022-09-22T08:05:10.728Z,11.29
2022-09-22T08:07:38.344Z,11.44
2022-09-22T08:10:06.809Z,11.64
2022-09-22T08:12:37.315Z,11.64
2022-09-22T08:15:05.589Z,11.89
2022-09-22T08:17:33.254Z,12.05
2022-09-22T08:20:04.992Z,12.26
2022-09-22T08:22:32.786Z,12.44
2022-09-22T08:25:00.372Z,12.38
2022-09-22T08:27:27.999Z,12.63
2022-09-22T08:29:55.606Z,12.92
2022-09-22T08:32:26.660Z,12.95
2022-09-22T08:34:57.949Z,13.02
2022-09-22T08:37:28.305Z,13.08
2022-09-22T08:39:56.269Z,13.18
2022-09-22T08:42:24.284Z,13.19
2022-09-22T08:45:00.187Z,13.44
2022-09-22T08:47:51.406Z,13.68
2022-09-22T08:50:44.307Z,13.83
2022-09-22T08:53:17.527Z,14.10
2022-09-22T08:55:48.732Z,14.09
2022-09-22T08:58:31.881Z,14.15
2022-09-22T09:01:10.942Z,14.17
2022-09-22T09:03:54.775Z,14.03
2022-09-22T09:06:31.893Z,13.96
2022-09-22T09:09:22.510Z,14.35
2022-09-22T09:12:03.548Z,14.44
2022-09-22T09:14:44.931Z,14.62
2022-09-22T09:17:19.175Z,14.75
2022-09-22T09:19:50.894Z,14.80
2022-09-22T09:22:24.962Z,15.01
2022-09-22T09:27:50.350Z,15.20
2022-09-22T09:30:20.042Z,15.48
2022-09-22T09:32:51.428Z,15.72
2022-09-22T09:35:26.444Z,15.88
2022-09-22T09:37:58.661Z,15.53
2022-09-22T09:40:28.527Z,15.92
2022-09-22T09:42:59.217Z,16.05
2022-09-22T09:45:33.272Z,16.16
2022-09-22T09:48:15.996Z,16.16
2022-09-22T09:50:43.727Z,16.19
2022-09-22T09:53:29.295Z,16.32
2022-09-22T09:55:58.756Z,16.36
2022-09-22T09:58:44.206Z,16.13
2022-09-22T10:01:15.104Z,16.26
2022-09-22T10:03:46.924Z,16.37
2022-09-22T10:06:16.009Z,16.20
2022-09-22T10:08:45.729Z,16.14
2022-09-22T10:11:15.840Z,15.79
2022-09-22T10:13:44.858Z,15.63
2022-09-22T10:16:33.366Z,15.69
2022-09-22T10:19:27.018Z,15.99
2022-09-22T10:22:22.639Z,15.98
2022-09-22T10:24:55.480Z,16.00
2022-09-22T10:27:25.943Z,16.09
2022-09-22T10:30:22.288Z,15.88
2022-09-22T10:33:13.572Z,16.50
2022-09-22T10:35:42.907Z,17.03
2022-09-22T10:38:17.330Z,17.25
2022-09-22T10:40:49.105Z,17.26
2022-09-22T10:43:43.939Z,17.50
2022-09-22T10:46:32.423Z,17.30
2022-09-22T10:49:07.268Z,16.90
2022-09-22T10:51:48.939Z,16.66
2022-09-22T10:54:28.886Z,16.80
2022-09-22T10:57:08.989Z,17.14
2022-09-22T10:59:58.623Z,17.79
2022-09-22T11:02:51.207Z,18.35
2022-09-22T11:05:48.655Z,18.37
2022-09-22T11:08:36.165Z,18.45
2022-09-22T11:11:28.811Z,18.90
2022-09-22T11:14:18.883Z,19.07
2022-09-22T11:17:03.918Z,19.46
2022-09-22T11:19:48.413Z,19.37
2022-09-22T11:22:33.923Z,19.36
2022-09-22T11:25:15.614Z,19.74
2022-09-22T11:27:54.480Z,19.86
2022-09-22T11:30:23.166Z,20.09
2022-09-22T11:33:21.711Z,20.41
2022-09-22T11:36:03.908Z,20.81
2022-09-22T11:38:51.723Z,20.96
2022-09-22T11:41:30.785Z,20.89
2022-09-22T11:44:25.268Z,20.98
2022-09-22T11:47:05.419Z,20.70
2022-09-22T11:49:50.365Z,20.33
2022-09-22T11:52:27.701Z,19.70
2022-09-22T11:55:18.469Z,19.48
2022-09-22T11:57:50.778Z,19.42
2022-09-22T12:00:21.153Z,19.02
2022-09-22T12:02:55.433Z,18.97
2022-09-22T12:05:28.974Z,18.75
2022-09-22T12:08:02.348Z,18.85
2022-09-22T12:10:35.152Z,19.06
2022-09-22T12:13:04.313Z,18.62
2022-09-22T12:15:38.964Z,18.60
2022-09-22T12:18:11.100Z,18.49
2022-09-22T12:20:50.275Z,18.27
2022-09-22T12:23:24.845Z,18.03
2022-09-22T12:25:55.051Z,18.33
2022-09-22T12:28:25.772Z,18.89
2022-09-22T12:31:03.810Z,19.33
2022-09-22T12:33:33.650Z,19.81
2022-09-22T12:36:04.188Z,20.21
2022-09-22T12:38:32.300Z,20.60
2022-09-22T12:41:04.193Z,20.85
2022-09-22T12:43:34.044Z,21.28
2022-09-22T12:46:05.557Z,21.07
2022-09-22T12:48:35.639Z,20.51
2022-09-22T12:51:32.327Z,19.92
2022-09-22T12:54:38.614Z,19.48
2022-09-22T12:57:30.513Z,19.33
2022-09-22T13:00:32.244Z,19.09
2022-09-22T13:03:01.572Z,18.73
2022-09-22T13:05:33.806Z,18.38
2022-09-22T13:08:03.528Z,17.65
2022-09-22T13:10:52.761Z,18.87
2022-09-22T13:13:23.539Z,18.71
2022-09-22T13:15:59.778Z,18.57
2022-09-22T13:18:33.063Z,18.11
2022-09-22T13:21:01.922Z,18.51
2022-09-22T13:23:31.113Z,18.70
2022-09-22T13:26:08.692Z,18.84
2022-09-22T13:28:36.629Z,18.43
2022-09-22T13:31:10.600Z,18.19
2022-09-22T13:33:38.781Z,17.97
2022-09-22T13:36:08.846Z,17.73
2022-09-22T13:38:40.081Z,17.57
2022-09-22T13:41:12.048Z,17.87
2022-09-22T13:43:42.692Z,18.55
2022-09-22T13:46:20.788Z,18.80
2022-09-22T13:48:50.157Z,18.36
2022-09-22T13:51:18.330Z,18.12
2022-09-22T13:53:52.217Z,18.11
2022-09-22T13:56:22.126Z,18.46
2022-09-22T13:58:52.750Z,18.94
2022-09-22T14:01:22.339Z,19.26
2022-09-22T14:03:51.590Z,19.10
2022-09-22T14:06:21.886Z,19.33
2022-09-22T14:08:53.002Z,19.52
2022-09-22T14:11:23.850Z,19.61
2022-09-22T14:13:59.012Z,19.34
2022-09-22T14:16:32.369Z,18.74
2022-09-22T14:19:05.763Z,18.62
2022-09-22T14:21:41.158Z,18.85
2022-09-22T14:24:13.727Z,19.26
2022-09-22T14:26:46.725Z,19.29
2022-09-22T14:29:19.626Z,19.35
2022-09-22T14:31:52.057Z,19.64
2022-09-22T14:34:24.842Z,19.51
2022-09-22T14:36:54.157Z,19.61
2022-09-22T14:39:31.222Z,19.42
2022-09-22T14:42:07.094Z,19.32
2022-09-22T14:44:42.137Z,19.27
2022-09-22T14:47:19.880Z,19.33
2022-09-22T14:49:48.542Z,19.32
2022-09-22T14:52:26.852Z,19.28
2022-09-22T14:55:00.758Z,19.27
2022-09-22T14:57:28.530Z,19.14
2022-09-22T15:00:17.246Z,19.14
2022-09-22T15:02:49.496Z,19.11
2022-09-22T15:05:29.353Z,18.89
2022-09-22T15:07:58.506Z,18.89
2022-09-22T15:10:30.551Z,18.62
2022-09-22T15:13:19.239Z,18.84
2022-09-22T15:15:48.381Z,18.88
2022-09-22T15:18:19.133Z,18.73
2022-09-22T15:20:49.935Z,18.44
2022-09-22T15:23:21.820Z,18.63
2022-09-22T15:25:52.069Z,18.62
2022-09-22T15:28:22.777Z,18.46
2022-09-22T15:30:51.474Z,18.36
2022-09-22T15:33:20.520Z,18.31
2022-09-22T15:35:52.144Z,18.17
2022-09-22T15:38:23.996Z,18.22
2022-09-22T15:40:53.192Z,18.14
2022-09-22T15:43:23.564Z,17.97
2022-09-22T15:45:56.095Z,17.96
2022-09-22T15:48:28.032Z,17.94
2022-09-22T15:50:56.854Z,17.88
2022-09-22T15:53:25.082Z,17.63
2022-09-22T15:55:55.395Z,17.79
2022-09-22T15:58:24.162Z,17.54
2022-09-22T16:00:53.140Z,16.97
2022-09-22T16:03:24.183Z,17.40
2022-09-22T16:05:57.016Z,17.35
2022-09-22T16:08:28.663Z,17.20
2022-09-22T16:10:59.041Z,17.15
2022-09-22T16:13:27.822Z,17.17
2022-09-22T16:15:55.938Z,17.01
2022-09-22T16:18:23.695Z,16.79
2022-09-22T16:20:51.730Z,16.65
2022-09-22T16:23:20.336Z,16.48
2022-09-22T16:25:53.834Z,16.37
2022-09-22T16:28:22.890Z,16.28
2022-09-22T16:30:50.832Z,16.13
2022-09-22T16:33:18.479Z,15.91
2022-09-22T16:35:46.168Z,15.85
2022-09-22T16:38:13.824Z,15.68
2022-09-22T16:40:42.480Z,15.51
2022-09-22T16:43:10.947Z,15.37
2022-09-22T16:45:57.648Z,15.18
2022-09-22T16:48:25.857Z,15.07
2022-09-22T16:50:55.212Z,14.86
2022-09-22T16:53:24.168Z,14.73
2022-09-22T16:55:51.748Z,14.58
2022-09-22T16:58:19.913Z,14.35
2022-09-22T17:00:48.981Z,14.18
2022-09-22T17:03:18.772Z,14.06
2022-09-22T17:05:47.022Z,13.81
2022-09-22T17:08:15.257Z,13.60
2022-09-22T17:10:42.940Z,13.51
2022-09-22T17:13:10.576Z,13.30
2022-09-22T17:15:38.184Z,13.15
2022-09-22T17:18:07.248Z,12.92
2022-09-22T17:20:34.921Z,12.76
2022-09-22T17:23:02.572Z,12.61
2022-09-22T17:25:30.267Z,12.45
2022-09-22T17:27:58.255Z,12.25
2022-09-22T17:30:26.251Z,12.10
2022-09-22T17:32:54.128Z,11.94
2022-09-22T17:35:41.464Z,11.81
2022-09-22T17:38:35.943Z,11.67
2022-09-22T17:41:25.648Z,11.55
2022-09-22T17:44:14.731Z,11.44
2022-09-22T17:47:20.366Z,11.30
2022-09-22T17:50:29.253Z,11.17
2022-09-22T17:53:36.332Z,11.06
2022-09-22T17:56:24.246Z,10.96
2022-09-22T17:59:12.140Z,10.89
2022-09-22T18:02:00.362Z,10.82
2022-09-22T18:04:48.831Z,10.82
2022-09-22T18:07:40.291Z,10.81
2022-09-22T18:10:32.300Z,10.93
2022-09-22T18:13:20.318Z,11.06
2022-09-22T18:16:19.773Z,11.14
2022-09-22T18:19:08.620Z,11.28
2022-09-22T18:21:56.723Z,11.37
2022-09-22T18:24:45.204Z,11.46
2022-09-22T18:27:34.445Z,11.52
2022-09-22T18:30:22.979Z,11.63
2022-09-22T18:33:11.839Z,11.70
2022-09-22T18:35:59.756Z,11.80
2022-09-22T18:38:47.630Z,11.84
2022-09-22T18:41:36.178Z,11.86
2022-09-22T18:44:28.095Z,11.61
2022-09-22T18:47:18.744Z,11.87
2022-09-22T18:50:07.570Z,11.83
2022-09-22T18:52:56.652Z,11.85
2022-09-22T18:55:44.653Z,11.85
2022-09-22T18:58:32.930Z,11.89
2022-09-22T19:01:23.703Z,11.73
2022-09-22T19:04:17.212Z,11.96
2022-09-22T19:07:22.559Z,11.93
2022-09-22T19:10:12.204Z,11.88
2022-09-22T19:13:00.117Z,11.86
2022-09-22T19:15:48.345Z,11.88
2022-09-22T19:18:39.048Z,11.86
2022-09-22T19:21:27.319Z,11.87
2022-09-22T19:24:15.244Z,11.85
2022-09-22T19:27:04.590Z,11.82
2022-09-22T19:29:52.763Z,11.87
2022-09-22T19:32:41.392Z,11.83
2022-09-22T19:35:30.629Z,11.87
2022-09-22T19:38:18.676Z,11.83
2022-09-22T19:41:06.637Z,11.89
2022-09-22T19:43:55.000Z,11.87
2022-09-22T19:46:43.092Z,11.86
2022-09-22T19:49:31.291Z,11.91
2022-09-22T19:52:20.552Z,11.90
2022-09-22T19:55:11.520Z,11.93
2022-09-22T19:57:59.808Z,11.98
2022-09-22T20:00:47.761Z,11.99
2022-09-22T20:03:35.647Z,11.98
2022-09-22T20:06:23.805Z,11.98
2022-09-22T20:09:13.206Z,11.96
2022-09-22T20:12:01.570Z,11.86
2022-09-22T20:14:51.403Z,11.69
2022-09-22T20:17:39.341Z,11.51
2022-09-22T20:20:28.614Z,11.40
2022-09-22T20:23:17.252Z,10.86
2022-09-22T20:26:06.781Z,11.37
2022-09-22T20:28:56.756Z,11.50
2022-09-22T20:31:44.958Z,11.59
2022-09-22T20:34:32.819Z,11.68
2022-09-22T20:37:20.920Z,11.75
2022-09-22T20:40:14.187Z,11.64
2022-09-22T20:43:04.330Z,11.67
2022-09-22T20:45:52.235Z,11.60
2022-09-22T20:48:40.497Z,11.55
2022-09-22T20:51:28.425Z,11.02
2022-09-22T20:54:16.713Z,11.60
2022-09-22T20:57:04.725Z,11.50
2022-09-22T20:59:54.171Z,11.59
2022-09-22T21:02:42.135Z,11.56
2022-09-22T21:05:30.120Z,11.57
2022-09-22T21:08:35.821Z,11.55
2022-09-22T21:11:24.513Z,11.53
2022-09-22T21:14:12.770Z,11.58
2022-09-22T21:17:03.858Z,11.38
2022-09-22T21:19:51.827Z,11.51
2022-09-22T21:22:40.908Z,11.47
2022-09-22T21:25:28.941Z,11.49
2022-09-22T21:28:16.866Z,11.44
2022-09-22T21:31:07.122Z,11.44
2022-09-22T21:33:56.744Z,11.47
2022-09-22T21:36:45.128Z,11.43
2022-09-22T21:39:33.063Z,11.47
2022-09-22T21:42:20.943Z,11.39
2022-09-22T21:45:09.772Z,11.38
2022-09-22T21:47:57.667Z,11.40
2022-09-22T21:50:55.702Z,11.32
2022-09-22T21:53:44.449Z,11.26
2022-09-22T21:56:33.776Z,11.34
2022-09-22T21:59:21.896Z,11.32
2022-09-22T22:02:09.852Z,11.31
2022-09-22T22:04:57.750Z,11.32
2022-09-22T22:07:47.040Z,11.27
2022-09-22T22:10:36.151Z,11.22
2022-09-22T22:13:24.029Z,11.13
2022-09-22T22:16:13.473Z,11.05
2022-09-22T22:19:02.122Z,11.02
2022-09-22T22:21:51.627Z,11.05
2022-09-22T22:24:42.298Z,11.08
2022-09-22T22:27:30.264Z,11.04
2022-09-22T22:30:19.111Z,11.05
2022-09-22T22:33:08.015Z,11.01
2022-09-22T22:35:56.984Z,10.89
2022-09-22T22:38:46.203Z,11.01
2022-09-22T22:41:35.444Z,10.96
2022-09-22T22:44:24.299Z,10.73
2022-09-22T22:47:12.216Z,10.91
2022-09-22T22:50:01.173Z,10.87
2022-09-22T22:52:49.074Z,10.74
2022-09-22T22:55:37.250Z,10.70
2022-09-22T22:58:29.267Z,10.63
2022-09-22T23:01:19.050Z,10.61
2022-09-22T23:04:08.819Z,10.65
2022-09-22T23:06:56.781Z,10.55
2022-09-22T23:09:44.658Z,10.57
2022-09-22T23:12:34.509Z,10.67
2022-09-22T23:15:24.339Z,10.54
2022-09-22T23:18:12.235Z,10.53
2022-09-22T23:21:00.137Z,10.63
2022-09-22T23:23:49.522Z,10.64
2022-09-22T23:26:38.227Z,10.61
2022-09-22T23:29:26.174Z,10.40
2022-09-22T23:32:15.479Z,10.29
2022-09-22T23:35:03.375Z,10.31
2022-09-22T23:37:51.810Z,10.22
2022-09-22T23:40:39.796Z,10.17
2022-09-22T23:43:30.457Z,10.36
2022-09-22T23:46:18.861Z,10.20
2022-09-22T23:49:08.456Z,10.31
2022-09-22T23:51:56.320Z,10.22
2022-09-22T23:54:44.634Z,10.12
2022-09-22T23:57:32.553Z,9.75
